Flight Track Log - Related Links

Times and Time Zones

All times are in EDT time to prevent confusion due to time zone crossing. See the ASQ4690 flight status page for this flight to view local times or setup timezone preferences in your user account.

Time Position Orientation Groundspeed Altitude Reporting Facility
EDT Latitude Longitude Course Direction KTS MPH feet Rate Location/Type
Wed 02:52:03 PM 38.8833 -77.0667 316° Northwest 190 219 1,600  Level Potomac TRACON
Wed 02:54:20 PM 38.9800 -77.1883 299° West 244 281 6,300 2,102 Climbing Washington Center
Wed 02:55:20 PM 39.0122 -77.2639 307° West 244 281 8,500 1,691 Climbing Washington Center
Wed 02:57:21 PM 39.1078 -77.4267 324° Northwest 267 307 11,400 1,483 Climbing Washington Center
Wed 02:58:18 PM 39.1756 -77.4900 326° Northwest 285 328 12,900 1,475 Climbing Washington Center
Wed 02:59:19 PM 39.2475 -77.5533 324° Northwest 306 352 14,300 1,289 Climbing Washington Center
Wed 03:00:19 PM 39.3214 -77.6225 324° Northwest 318 366 15,500 1,091 Climbing Washington Center
Wed 03:01:20 PM 39.3953 -77.6917 324° Northwest 318 366 16,500 885 Climbing Washington Center
Wed 03:02:21 PM 39.4733 -77.7639 324° Northwest 337 388 17,300 857 Climbing Washington Center
Wed 03:03:19 PM 39.5531 -77.8389 325° Northwest 348 400 18,200 915 Climbing Washington Center
Wed 03:04:19 PM 39.6372 -77.9142 325° Northwest 353 406 19,100 864 Climbing Washington Center
Wed 03:05:24 PM 39.7228 -77.9919 324° Northwest 364 419 20,000 912 Climbing Cleveland Center
Wed 03:06:24 PM 39.8103 -78.0750 315° West 376 433 21,000 900 Climbing Cleveland Center
Wed 03:07:24 PM 39.8853 -78.1725 310° West 382 440 21,800 1,250 Climbing Cleveland Center
Wed 03:08:24 PM 39.9628 -78.2942 310° West 391 450 23,500 1,350 Climbing Cleveland Center
Wed 03:09:24 PM 40.0317 -78.4003 313° West 391 450 24,500 1,050 Climbing Cleveland Center
Wed 03:10:24 PM 40.0958 -78.4906 309° West 391 450 25,600 750 Climbing Cleveland Center
Wed 03:11:24 PM 40.1644 -78.5997 310° West 391 450 26,000 200 Climbing Cleveland Center
Wed 03:12:24 PM 40.2372 -78.7119 310° West 391 450 26,000  Level Cleveland Center
Wed 03:13:24 PM 40.3144 -78.8322 306° West 403 464 26,000  Level Cleveland Center
Wed 03:14:24 PM 40.3850 -78.9586 308° West 422 486 26,000  Level Cleveland Center
Wed 03:15:24 PM 40.4597 -79.0850 306° West 433 498 26,000  Level Cleveland Center
Wed 03:16:24 PM 40.5300 -79.2117 306° West 438 504 26,000  Level Cleveland Center
Wed 03:17:24 PM 40.6025 -79.3417 307° West 443 510 26,000  Level Cleveland Center
Wed 03:18:24 PM 40.6767 -79.4717 305° West 443 510 26,000 -50 Level Cleveland Center
Wed 03:19:24 PM 40.7467 -79.6019 306° West 448 516 25,900 -650 Descending Cleveland Center
Wed 03:20:24 PM 40.8144 -79.7272 316° Northwest 438 504 24,700 -950 Descending Cleveland Center
Wed 03:21:24 PM 40.8944 -79.8278 322° Northwest 416 479 24,000 -350 Descending Cleveland Center
Wed 03:22:24 PM 40.9844 -79.9203 321° Northwest 402 463 24,000  Level Cleveland Center
Wed 03:23:24 PM 41.0725 -80.0158 307° West 402 463 24,000  Level Cleveland Center
Wed 03:24:24 PM 41.1378 -80.1308 295° West 395 455 24,000  Level Cleveland Center
Wed 03:25:24 PM 41.1842 -80.2658 294° West 395 455 24,000  Level Cleveland Center
Wed 03:26:24 PM 41.2303 -80.4008 296° West 402 463 24,000 -700 Level Cleveland Center
Wed 03:27:24 PM 41.2783 -80.5306 295° West 396 456 22,600 -2,150 Descending Cleveland Center
Wed 03:28:24 PM 41.3219 -80.6550 297° West 388 447 19,700 -2,800 Descending Cleveland Center
Wed 03:29:24 PM 41.3678 -80.7742 297° West 371 427 17,000 -2,761 Descending Cleveland Center
Wed 03:30:17 PM 41.4072 -80.8794 298° West 329 379 14,500 -2,353 Descending Cleveland Center
Wed 03:31:06 PM 41.4403 -80.9625 296° West 290 334 13,000 -1,927 Descending Cleveland Center
Wed 03:32:06 PM 41.4753 -81.0597 298° West 285 328 11,000 -1,651 Descending Cleveland Center
Wed 03:32:55 PM 41.5042 -81.1322 278° West 286 329 10,000 -873 Descending Cleveland Center
Wed 03:33:56 PM 41.5142 -81.2319 272° West 248 285 9,400 -1,243 Descending Cleveland Center
Wed 03:35:15 PM 41.5175 -81.3431 270° West 238 274 7,100 -1,378 Descending Cleveland Center
Wed 03:36:24 PM 41.5169 -81.4400 271° West 247 284 6,000 -1,134 Descending Cleveland Center
Wed 03:37:22 PM 41.5183 -81.5261 271° West 237 273 4,700 -1,071 Descending Cleveland Center
Wed 03:38:16 PM 41.5197 -81.6064 267° West 238 274 4,000 -417 Descending Cleveland Center
Wed 03:39:17 PM 41.5169 -81.6897 230° Southwest 223 257 3,900 -492 Descending Cleveland Center
Wed 03:40:18 PM 41.4831 -81.7444 230° Southwest 180 207 3,000 -893 Descending Cleveland Center
Wed 03:41:18 PM 41.4575 -81.7856 226° Southwest 141 162 2,100 -803 Descending Cleveland Center
Wed 03:42:25 PM 41.4278 -81.8267 226° Southwest 133 153 1,300 -716 Descending Cleveland Center

Login

Don't have an account? Register now (free) for customized features, flight alerts, and more!